Time;durP1;ratioP1;P1;durP2;ratioP2;P2;SDS_P1;SDS_P2;PMS_P1;PMS_P2;Temp;Humidity;BMP_temperature;BMP_pressure;BME280_temperature;BME280_humidity;BME280_pressure;Samples;Min_cycle;Max_cycle;Signal;HPM_P1;HPM_P2
2022/02/18 00:01:43;;;;;;;18.30;2.50;;;8.20;99.90;;;;;;4985265;28;20035;-69
2022/02/18 00:04:08;;;;;;;22.00;3.08;;;8.20;99.90;;;;;;4989306;28;20030;-70
2022/02/18 00:06:34;;;;;;;20.17;3.35;;;8.20;99.90;;;;;;4997393;28;20367;-69
2022/02/18 00:08:59;;;;;;;20.02;3.10;;;8.20;99.90;;;;;;4988218;28;20423;-69
2022/02/18 00:11:25;;;;;;;18.95;2.75;;;8.10;99.90;;;;;;4980907;28;20026;-69
2022/02/18 00:13:51;;;;;;;15.15;3.10;;;8.10;99.90;;;;;;4989992;28;20031;-69
2022/02/18 00:16:16;;;;;;;19.50;3.13;;;8.10;99.90;;;;;;4990661;28;20033;-69
2022/02/18 00:18:42;;;;;;;19.63;3.50;;;8.10;99.90;;;;;;4987104;28;20068;-69
2022/02/18 00:21:08;;;;;;;16.83;2.67;;;8.00;99.90;;;;;;4990060;28;20034;-69
2022/02/18 00:23:33;;;;;;;18.13;3.17;;;8.00;99.90;;;;;;4987264;28;20036;-69
2022/02/18 00:25:59;;;;;;;14.45;2.63;;;8.00;99.90;;;;;;4987320;28;20061;-70
2022/02/18 00:28:25;;;;;;;21.45;3.30;;;8.00;99.90;;;;;;4992080;28;20091;-69
2022/02/18 00:30:51;;;;;;;20.90;3.53;;;8.00;99.90;;;;;;5004358;28;20022;-69
2022/02/18 00:33:18;;;;;;;22.27;3.25;;;8.00;99.90;;;;;;4995357;28;20034;-69
2022/02/18 00:35:44;;;;;;;17.52;3.35;;;8.00;99.90;;;;;;4987166;28;20478;-69
2022/02/18 00:38:10;;;;;;;16.58;2.90;;;7.90;99.90;;;;;;4990094;28;20096;-69
2022/02/18 00:40:35;;;;;;;20.13;3.47;;;7.90;99.90;;;;;;4993130;28;20128;-69
2022/02/18 00:43:01;;;;;;;16.33;3.45;;;7.90;99.90;;;;;;4993152;28;20040;-69
2022/02/18 00:45:28;;;;;;;16.55;2.83;;;7.90;99.90;;;;;;5004835;28;20121;-70
2022/02/18 00:47:54;;;;;;;23.38;3.25;;;7.80;99.90;;;;;;4990345;28;20502;-69
2022/02/18 00:50:21;;;;;;;15.90;3.13;;;7.80;99.90;;;;;;4991119;28;20387;-69
2022/02/18 00:52:46;;;;;;;17.08;3.22;;;7.80;99.90;;;;;;4991927;28;20037;-69
2022/02/18 00:55:12;;;;;;;21.50;3.25;;;7.80;99.90;;;;;;4994786;28;20026;-70
2022/02/18 00:57:39;;;;;;;21.05;3.47;;;7.80;99.90;;;;;;4990346;28;20081;-69
2022/02/18 01:00:07;;;;;;;20.23;3.05;;;7.80;99.90;;;;;;4990957;28;20172;-69
2022/02/18 01:02:33;;;;;;;21.20;3.15;;;7.70;99.90;;;;;;4992868;28;20034;-69
2022/02/18 01:04:59;;;;;;;21.75;3.47;;;7.70;99.90;;;;;;4992372;28;20089;-69
2022/02/18 01:07:25;;;;;;;17.00;3.35;;;7.70;99.90;;;;;;4989567;28;20132;-70
2022/02/18 01:09:53;;;;;;;15.30;2.70;;;7.70;99.90;;;;;;4992306;28;20033;-69
2022/02/18 01:12:20;;;;;;;20.90;3.33;;;7.70;99.90;;;;;;4991198;28;20019;-70
2022/02/18 01:14:45;;;;;;;21.20;3.17;;;7.70;99.90;;;;;;5011416;28;20117;-69
2022/02/18 01:17:11;;;;;;;17.55;3.40;;;7.70;99.90;;;;;;4992564;28;20146;-69
2022/02/18 01:19:37;;;;;;;18.98;3.38;;;7.70;99.90;;;;;;4990728;28;20320;-69
2022/02/18 01:22:04;;;;;;;16.65;3.03;;;7.70;99.90;;;;;;4990298;28;20081;-70
2022/02/18 01:24:30;;;;;;;19.95;2.70;;;7.70;99.90;;;;;;5001462;28;20027;-69
2022/02/18 01:26:55;;;;;;;24.10;3.13;;;7.70;99.90;;;;;;4989123;28;20088;-69
2022/02/18 01:29:21;;;;;;;17.88;3.15;;;7.70;99.90;;;;;;4989951;28;20031;-70
2022/02/18 01:31:47;;;;;;;23.52;3.05;;;7.70;99.90;;;;;;4991810;28;20114;-70
2022/02/18 01:34:13;;;;;;;20.20;3.10;;;7.70;99.90;;;;;;5007248;28;20061;-69
2022/02/18 01:36:38;;;;;;;17.55;3.15;;;7.70;99.90;;;;;;4989990;28;20046;-69
2022/02/18 01:39:04;;;;;;;18.92;3.00;;;7.70;99.90;;;;;;4991209;28;20066;-69
2022/02/18 01:41:30;;;;;;;17.75;2.70;;;7.70;99.90;;;;;;4991061;28;20103;-69
2022/02/18 01:43:57;;;;;;;15.65;3.05;;;7.70;99.90;;;;;;4985705;28;20062;-69
2022/02/18 01:46:23;;;;;;;11.73;2.47;;;7.70;99.90;;;;;;4988232;28;20030;-70
2022/02/18 01:48:50;;;;;;;18.55;3.10;;;7.80;99.90;;;;;;4987818;28;20031;-69
2022/02/18 01:51:20;;;;;;;19.63;3.20;;;7.80;99.90;;;;;;4989211;28;20494;-69
2022/02/18 01:53:48;;;;;;;18.13;3.30;;;7.80;99.90;;;;;;4993364;28;20069;-68
2022/02/18 01:56:14;;;;;;;15.07;2.58;;;7.80;99.90;;;;;;4985480;28;20026;-69
2022/02/18 01:58:41;;;;;;;26.17;3.33;;;7.80;99.90;;;;;;4988792;28;20483;-69
2022/02/18 02:01:09;;;;;;;18.70;2.72;;;7.80;99.90;;;;;;4990785;28;20042;-69
2022/02/18 02:03:36;;;;;;;20.90;3.03;;;7.80;99.90;;;;;;4995296;28;20530;-69
2022/02/18 02:06:02;;;;;;;18.20;2.97;;;7.80;99.90;;;;;;5001079;28;20022;-70
2022/02/18 02:08:28;;;;;;;21.15;3.50;;;7.90;99.90;;;;;;4990323;28;20030;-69
2022/02/18 02:10:55;;;;;;;18.73;3.00;;;7.90;99.90;;;;;;4990760;28;20100;-70
2022/02/18 02:13:34;;;;;;;21.85;3.28;;;7.90;99.90;;;;;;4993259;28;20046;-69
2022/02/18 02:16:00;;;;;;;18.55;2.80;;;7.90;99.90;;;;;;4993429;28;20030;-69
2022/02/18 02:18:26;;;;;;;19.08;2.50;;;7.90;99.90;;;;;;4996210;28;20018;-69
2022/02/18 02:20:53;;;;;;;13.98;2.75;;;7.90;99.90;;;;;;4989321;28;20336;-69
2022/02/18 02:23:18;;;;;;;17.73;3.10;;;7.90;99.90;;;;;;5001638;28;20026;-69
2022/02/18 02:25:45;;;;;;;18.30;2.95;;;7.90;99.90;;;;;;4990778;28;20049;-70
2022/02/18 02:28:11;;;;;;;19.58;3.13;;;8.00;99.90;;;;;;4988634;28;20027;-69
2022/02/18 02:30:37;;;;;;;20.38;3.08;;;8.00;99.90;;;;;;4998435;28;20486;-69
2022/02/18 02:33:03;;;;;;;20.50;2.85;;;8.00;99.90;;;;;;4990406;28;20555;-69
2022/02/18 02:35:28;;;;;;;17.70;3.00;;;8.00;99.90;;;;;;5005660;28;20091;-69
2022/02/18 02:37:54;;;;;;;16.30;3.10;;;8.00;99.90;;;;;;4992199;28;20459;-69
2022/02/18 02:40:20;;;;;;;19.10;3.45;;;8.00;99.90;;;;;;4998209;28;20161;-69
2022/02/18 02:42:46;;;;;;;22.65;3.10;;;8.00;99.90;;;;;;5001333;28;20030;-69
2022/02/18 02:45:11;;;;;;;20.27;3.08;;;8.00;99.90;;;;;;5003127;28;20022;-68
2022/02/18 02:47:45;;;;;;;16.48;3.40;;;8.00;99.90;;;;;;4989326;28;20402;-70
2022/02/18 02:50:12;;;;;;;19.10;3.13;;;8.00;99.90;;;;;;4993770;28;20030;-69
2022/02/18 02:52:38;;;;;;;15.20;2.58;;;7.90;99.90;;;;;;4994186;28;20026;-69
2022/02/18 02:55:06;;;;;;;15.43;2.78;;;7.90;99.90;;;;;;5000554;28;20401;-69
2022/02/18 02:57:32;;;;;;;23.95;3.47;;;7.90;99.90;;;;;;4992582;28;20038;-69
2022/02/18 02:59:58;;;;;;;17.98;2.97;;;7.90;99.90;;;;;;4995972;28;20104;-69
2022/02/18 03:02:23;;;;;;;24.15;3.13;;;7.90;99.90;;;;;;4990597;28;20054;-69
2022/02/18 03:04:49;;;;;;;23.48;3.78;;;7.90;99.90;;;;;;4989717;28;20038;-69
2022/02/18 03:07:14;;;;;;;24.35;3.20;;;7.80;99.90;;;;;;4985567;28;20462;-70
2022/02/18 03:09:40;;;;;;;14.57;2.80;;;7.80;99.90;;;;;;4990366;28;20027;-69
2022/02/18 03:12:06;;;;;;;18.88;3.20;;;7.70;99.90;;;;;;4987543;28;20018;-70
2022/02/18 03:14:32;;;;;;;17.50;2.95;;;7.70;99.90;;;;;;4989541;28;20435;-68
2022/02/18 03:16:58;;;;;;;16.38;3.47;;;7.70;99.90;;;;;;4996210;28;20041;-69
2022/02/18 03:19:23;;;;;;;25.38;3.10;;;7.70;99.90;;;;;;5007489;28;20486;-69
2022/02/18 03:21:51;;;;;;;16.73;3.10;;;7.70;99.90;;;;;;4990900;28;20042;-69
2022/02/18 03:24:17;;;;;;;19.95;3.40;;;7.60;99.90;;;;;;4989014;28;20027;-70
2022/02/18 03:26:43;;;;;;;17.58;3.08;;;7.60;99.90;;;;;;4990996;28;20041;-69
2022/02/18 03:29:09;;;;;;;19.92;3.22;;;7.60;99.90;;;;;;4984343;28;20038;-69
2022/02/18 03:31:35;;;;;;;16.77;3.03;;;7.60;99.90;;;;;;4988061;28;20058;-69
2022/02/18 03:34:00;;;;;;;20.35;3.05;;;7.60;99.90;;;;;;4989134;28;20518;-70
2022/02/18 03:36:26;;;;;;;19.77;3.92;;;7.60;99.90;;;;;;5005862;28;20030;-69
2022/02/18 03:38:54;;;;;;;12.18;2.60;;;7.60;99.90;;;;;;4990173;28;20038;-69
2022/02/18 03:41:19;;;;;;;13.95;2.65;;;7.60;99.90;;;;;;4999835;28;20499;-69
2022/02/18 03:43:45;;;;;;;15.27;2.75;;;7.60;99.90;;;;;;4989411;28;20117;-69
2022/02/18 03:46:10;;;;;;;17.50;3.05;;;7.50;99.90;;;;;;4988707;28;20126;-69
2022/02/18 03:48:36;;;;;;;21.60;3.05;;;7.50;99.90;;;;;;4986149;28;20136;-69
2022/02/18 03:51:02;;;;;;;18.40;2.92;;;7.50;99.90;;;;;;4989508;28;20034;-69
2022/02/18 03:53:27;;;;;;;20.05;3.42;;;7.50;99.90;;;;;;4990744;28;20442;-69
2022/02/18 03:55:54;;;;;;;18.85;2.83;;;7.50;99.90;;;;;;4999454;28;20057;-69
2022/02/18 03:58:20;;;;;;;23.58;3.78;;;7.50;99.90;;;;;;4994677;28;20114;-68
2022/02/18 04:00:46;;;;;;;13.35;2.85;;;7.50;99.90;;;;;;4987570;28;20073;-69
2022/02/18 04:03:12;;;;;;;20.95;3.00;;;7.40;99.90;;;;;;4994220;28;20026;-69
2022/02/18 04:05:37;;;;;;;18.63;2.72;;;7.40;99.90;;;;;;4997113;28;20042;-69
2022/02/18 04:08:04;;;;;;;15.75;2.92;;;7.50;99.90;;;;;;4988600;28;20045;-69
2022/02/18 04:10:29;;;;;;;13.40;2.70;;;7.40;99.90;;;;;;4989957;28;20057;-69
2022/02/18 04:12:55;;;;;;;18.65;3.00;;;7.40;99.90;;;;;;4989856;28;20022;-69
2022/02/18 04:15:20;;;;;;;14.23;2.55;;;7.40;99.90;;;;;;5009447;28;20064;-69
2022/02/18 04:17:46;;;;;;;21.85;3.17;;;7.40;99.90;;;;;;4991732;28;20049;-69
2022/02/18 04:20:12;;;;;;;17.00;2.70;;;7.40;99.90;;;;;;4992325;28;20034;-69
2022/02/18 04:22:37;;;;;;;13.02;3.00;;;7.40;99.90;;;;;;4995158;28;20057;-69
2022/02/18 04:25:04;;;;;;;13.85;2.78;;;7.40;99.90;;;;;;4993549;28;20052;-69
2022/02/18 04:27:29;;;;;;;10.90;2.53;;;7.40;99.90;;;;;;4997858;28;20018;-69
2022/02/18 04:29:55;;;;;;;11.52;2.33;;;7.40;99.90;;;;;;4992883;28;20471;-69
2022/02/18 04:32:20;;;;;;;11.70;2.67;;;7.40;99.90;;;;;;4995969;28;20029;-69
2022/02/18 04:34:46;;;;;;;24.73;3.80;;;7.40;99.90;;;;;;4992781;28;20093;-69
2022/02/18 04:37:12;;;;;;;15.23;3.08;;;7.40;99.90;;;;;;4989628;28;20052;-69
2022/02/18 04:39:37;;;;;;;10.63;2.70;;;7.40;99.90;;;;;;5007618;28;20035;-69
2022/02/18 04:42:03;;;;;;;15.70;3.20;;;7.40;99.90;;;;;;5007769;28;20110;-69
2022/02/18 04:44:29;;;;;;;17.05;2.85;;;7.40;99.90;;;;;;4993339;28;20027;-70
2022/02/18 04:46:54;;;;;;;14.90;2.67;;;7.40;99.90;;;;;;4989269;28;20030;-68
2022/02/18 04:49:20;;;;;;;16.65;2.50;;;7.40;99.90;;;;;;4991593;28;20030;-69
2022/02/18 04:51:49;;;;;;;18.38;2.97;;;7.40;99.90;;;;;;4992524;28;20026;-69
2022/02/18 04:54:14;;;;;;;17.40;2.88;;;7.30;99.90;;;;;;4989131;28;20018;-69
2022/02/18 04:56:40;;;;;;;19.45;2.67;;;7.30;99.90;;;;;;4989555;28;20038;-69
2022/02/18 04:59:06;;;;;;;13.77;2.50;;;7.30;99.90;;;;;;5010013;28;20435;-69
2022/02/18 05:01:31;;;;;;;16.45;2.67;;;7.30;99.90;;;;;;4996119;28;20025;-69
2022/02/18 05:03:57;;;;;;;13.18;2.78;;;7.30;99.90;;;;;;4995385;28;20030;-68
2022/02/18 05:06:23;;;;;;;14.40;3.10;;;7.30;99.90;;;;;;4992814;28;20045;-69
2022/02/18 05:08:48;;;;;;;19.65;2.80;;;7.30;99.90;;;;;;4992225;28;20030;-68
2022/02/18 05:11:14;;;;;;;11.88;2.47;;;7.30;99.90;;;;;;4991442;28;20026;-68
2022/02/18 05:13:39;;;;;;;23.85;3.17;;;7.20;99.90;;;;;;4992751;28;20026;-68
2022/02/18 05:16:05;;;;;;;17.88;3.08;;;7.20;99.90;;;;;;4992532;28;20034;-68
2022/02/18 05:18:31;;;;;;;15.45;2.88;;;7.20;99.90;;;;;;4991218;28;20131;-68
2022/02/18 05:20:57;;;;;;;16.63;3.15;;;7.20;99.90;;;;;;4999574;28;20038;-68
2022/02/18 05:23:23;;;;;;;21.17;2.80;;;7.20;99.90;;;;;;4992538;28;20023;-69
2022/02/18 05:25:48;;;;;;;14.27;2.88;;;7.20;99.90;;;;;;5017558;23;20069;-68
2022/02/18 05:28:15;;;;;;;14.95;2.53;;;7.20;99.90;;;;;;5007233;28;20076;-67
2022/02/18 05:30:42;;;;;;;14.02;2.75;;;7.20;99.90;;;;;;5011285;28;20026;-68
2022/02/18 05:33:07;;;;;;;10.40;2.15;;;7.20;99.90;;;;;;5012129;28;20033;-68
2022/02/18 05:35:33;;;;;;;13.48;2.95;;;7.20;99.90;;;;;;5012222;28;20088;-68
2022/02/18 05:37:58;;;;;;;18.88;3.08;;;7.10;99.90;;;;;;5010697;28;20133;-68
2022/02/18 05:40:24;;;;;;;16.58;3.03;;;7.10;99.90;;;;;;5011860;28;20099;-67
2022/02/18 05:42:49;;;;;;;18.65;3.28;;;7.10;99.90;;;;;;5011791;28;20034;-68
2022/02/18 05:45:15;;;;;;;15.50;2.80;;;7.10;99.90;;;;;;5011301;28;20076;-68
2022/02/18 05:47:41;;;;;;;15.50;2.92;;;7.10;99.90;;;;;;5010486;28;20508;-67
2022/02/18 05:50:10;;;;;;;13.98;2.63;;;7.10;99.90;;;;;;5011386;28;20026;-67
2022/02/18 05:52:36;;;;;;;11.75;2.50;;;7.10;99.90;;;;;;5011930;28;20030;-67
2022/02/18 05:55:05;;;;;;;17.33;3.33;;;7.10;99.90;;;;;;5010069;28;20080;-68
2022/02/18 05:57:31;;;;;;;12.73;2.47;;;7.20;99.90;;;;;;5009931;28;20029;-67
2022/02/18 05:59:57;;;;;;;16.13;2.15;;;7.20;99.90;;;;;;5011439;28;20130;-68
2022/02/18 06:02:22;;;;;;;17.33;2.42;;;7.20;99.90;;;;;;5008982;28;20133;-69
2022/02/18 06:04:48;;;;;;;10.38;2.25;;;7.10;99.90;;;;;;5007776;28;20561;-70
2022/02/18 06:07:17;;;;;;;14.40;2.38;;;7.20;99.90;;;;;;5009430;28;20091;-68
2022/02/18 06:09:44;;;;;;;18.63;2.70;;;7.20;99.90;;;;;;5011145;28;20702;-67
2022/02/18 06:12:10;;;;;;;14.25;2.28;;;7.20;99.90;;;;;;5009567;28;20030;-68
2022/02/18 06:14:36;;;;;;;14.35;2.55;;;7.20;99.90;;;;;;5007804;28;20041;-68
2022/02/18 06:17:06;;;;;;;14.18;2.03;;;7.20;99.90;;;;;;5008708;28;20041;-67
2022/02/18 06:19:33;;;;;;;9.52;2.13;;;7.20;99.90;;;;;;5012601;28;20490;-68
2022/02/18 06:21:58;;;;;;;12.85;2.58;;;7.20;99.90;;;;;;5026165;28;20037;-68
2022/02/18 06:24:24;;;;;;;15.55;2.28;;;7.30;99.90;;;;;;5020250;28;20030;-68
2022/02/18 06:26:49;;;;;;;13.30;2.38;;;7.30;99.90;;;;;;5001134;28;20030;-67
2022/02/18 06:29:15;;;;;;;14.52;3.28;;;7.30;99.90;;;;;;5009572;28;20038;-68
2022/02/18 06:31:41;;;;;;;14.82;2.97;;;7.30;99.90;;;;;;5006240;28;20033;-69
2022/02/18 06:34:07;;;;;;;14.43;2.47;;;7.30;99.90;;;;;;5008311;28;20112;-66
2022/02/18 06:36:33;;;;;;;15.27;2.60;;;7.30;99.90;;;;;;5008959;28;20022;-68
2022/02/18 06:38:59;;;;;;;14.15;2.55;;;7.30;99.90;;;;;;5008636;28;20521;-68
2022/02/18 06:41:24;;;;;;;10.23;2.30;;;7.30;99.90;;;;;;5009498;28;20076;-68
2022/02/18 06:43:50;;;;;;;10.57;2.10;;;7.30;99.90;;;;;;5010363;28;20459;-68
2022/02/18 06:46:15;;;;;;;16.50;3.45;;;7.30;99.90;;;;;;5008151;28;20018;-68
2022/02/18 06:48:41;;;;;;;15.15;2.88;;;7.40;99.90;;;;;;5004953;28;20021;-68
2022/02/18 06:51:06;;;;;;;14.10;2.63;;;7.40;99.90;;;;;;5005800;28;20107;-68
2022/02/18 06:53:32;;;;;;;13.60;2.83;;;7.40;99.90;;;;;;5010636;28;20025;-68
2022/02/18 06:55:58;;;;;;;11.70;2.20;;;7.40;99.90;;;;;;5007432;28;20030;-68
2022/02/18 06:58:23;;;;;;;11.52;2.10;;;7.40;99.90;;;;;;5008767;28;20806;-68
2022/02/18 07:00:51;;;;;;;10.57;2.50;;;7.40;99.90;;;;;;5010684;28;20678;-68
2022/02/18 07:03:20;;;;;;;14.20;2.97;;;7.40;99.90;;;;;;5009950;28;20036;-68
2022/02/18 07:05:46;;;;;;;13.68;2.70;;;7.50;99.90;;;;;;5010595;28;20034;-68
2022/02/18 07:08:12;;;;;;;9.55;2.63;;;7.50;99.90;;;;;;5008663;28;20038;-68
2022/02/18 07:10:38;;;;;;;9.82;2.25;;;7.50;99.90;;;;;;5011079;28;20581;-68
2022/02/18 07:13:03;;;;;;;12.27;2.25;;;7.50;99.90;;;;;;5009949;28;20034;-68
2022/02/18 07:15:29;;;;;;;15.38;2.78;;;7.60;99.90;;;;;;5010848;28;20061;-67
2022/02/18 07:17:55;;;;;;;10.50;2.75;;;7.60;99.90;;;;;;5008597;28;20030;-69
2022/02/18 07:20:22;;;;;;;13.50;2.65;;;7.60;99.90;;;;;;5009741;28;20168;-68
2022/02/18 07:22:47;;;;;;;15.25;2.40;;;7.60;99.90;;;;;;5005929;28;20038;-68
2022/02/18 07:25:14;;;;;;;17.40;2.53;;;7.60;99.90;;;;;;5007620;28;20045;-68
2022/02/18 07:27:40;;;;;;;10.82;2.55;;;7.70;99.90;;;;;;4997257;28;20422;-68
2022/02/18 07:30:07;;;;;;;24.13;3.10;;;7.70;99.90;;;;;;5005939;28;20037;-69
2022/02/18 07:32:32;;;;;;;11.65;2.53;;;7.80;99.90;;;;;;5009240;28;20017;-68
2022/02/18 07:34:58;;;;;;;12.85;2.80;;;7.80;99.90;;;;;;5009737;28;20033;-68
2022/02/18 07:37:23;;;;;;;7.13;2.10;;;7.80;99.90;;;;;;5008533;28;20029;-68
2022/02/18 07:39:49;;;;;;;12.95;2.35;;;7.80;99.90;;;;;;5010358;28;20063;-69
2022/02/18 07:42:14;;;;;;;12.90;2.90;;;7.90;99.90;;;;;;5009219;28;20029;-68
2022/02/18 07:44:40;;;;;;;16.45;2.78;;;7.90;99.90;;;;;;5009619;28;20041;-68
2022/02/18 07:47:06;;;;;;;16.25;2.40;;;7.90;99.90;;;;;;5010225;28;20034;-68
2022/02/18 07:49:32;;;;;;;11.00;2.45;;;8.00;99.90;;;;;;5013539;28;20033;-68
2022/02/18 07:51:57;;;;;;;14.68;2.33;;;8.00;99.90;;;;;;5014443;28;20397;-69
2022/02/18 07:54:23;;;;;;;12.90;2.60;;;8.10;99.90;;;;;;5013091;28;20092;-68
2022/02/18 07:56:48;;;;;;;16.85;2.33;;;8.10;99.90;;;;;;5013042;28;20033;-69
2022/02/18 07:59:14;;;;;;;17.45;5.15;;;8.20;99.90;;;;;;5012214;28;20485;-68
2022/02/18 08:01:40;;;;;;;20.17;3.08;;;8.30;99.90;;;;;;5013756;28;20359;-68
2022/02/18 08:04:05;;;;;;;13.70;2.78;;;8.30;99.90;;;;;;5011822;28;20018;-68
2022/02/18 08:06:31;;;;;;;13.88;2.17;;;8.40;99.90;;;;;;5013663;28;20379;-68
2022/02/18 08:08:57;;;;;;;8.35;1.80;;;8.40;99.90;;;;;;5011223;28;20020;-68
2022/02/18 08:11:23;;;;;;;12.07;2.45;;;8.50;99.90;;;;;;5012646;28;20022;-68
2022/02/18 08:13:49;;;;;;;11.85;2.42;;;8.50;99.90;;;;;;5013689;28;20052;-68
2022/02/18 08:16:15;;;;;;;11.10;2.22;;;8.50;99.90;;;;;;5011289;28;20045;-68
2022/02/18 08:18:43;;;;;;;10.63;2.35;;;8.50;99.90;;;;;;5011395;28;20029;-68
2022/02/18 08:21:10;;;;;;;14.68;2.55;;;8.50;99.90;;;;;;5013389;28;20030;-69
2022/02/18 08:23:36;;;;;;;10.93;2.22;;;8.60;99.90;;;;;;5008477;28;20060;-68
2022/02/18 08:26:02;;;;;;;17.23;2.65;;;8.60;99.90;;;;;;5008868;28;20046;-69
2022/02/18 08:28:28;;;;;;;20.42;3.78;;;8.60;99.90;;;;;;5003663;28;20425;-68
2022/02/18 08:30:53;;;;;;;8.45;2.08;;;8.60;99.90;;;;;;5012639;28;20032;-68
2022/02/18 08:33:19;;;;;;;16.17;2.20;;;8.70;99.90;;;;;;5013497;28;20026;-68
2022/02/18 08:35:45;;;;;;;12.10;1.95;;;8.70;99.90;;;;;;5013556;28;20371;-68
2022/02/18 08:38:10;;;;;;;13.48;2.50;;;8.70;99.90;;;;;;5012420;28;20026;-68
2022/02/18 08:40:36;;;;;;;11.48;2.20;;;8.70;99.90;;;;;;5013406;28;20088;-69
2022/02/18 08:43:02;;;;;;;10.80;2.10;;;8.70;99.90;;;;;;5010530;28;20080;-68
2022/02/18 08:45:31;;;;;;;10.32;2.03;;;8.80;99.90;;;;;;5012394;28;20421;-68
2022/02/18 08:47:57;;;;;;;10.52;1.80;;;8.80;99.90;;;;;;5024981;28;20026;-68
2022/02/18 08:50:23;;;;;;;12.68;2.25;;;8.80;99.90;;;;;;5013447;28;20072;-68
2022/02/18 08:52:49;;;;;;;10.40;1.92;;;8.90;99.90;;;;;;5013070;28;20030;-68
2022/02/18 08:55:15;;;;;;;9.07;2.00;;;9.00;99.90;;;;;;5013223;28;20061;-68
2022/02/18 08:57:46;;;;;;;14.43;2.53;;;9.00;99.90;;;;;;5007107;28;20041;-69
2022/02/18 09:00:14;;;;;;;13.57;2.33;;;9.00;99.90;;;;;;4992651;28;20081;-68
2022/02/18 09:02:41;;;;;;;11.45;2.05;;;9.10;99.90;;;;;;4993720;28;20034;-68
2022/02/18 09:05:08;;;;;;;8.05;2.05;;;9.10;99.90;;;;;;5013073;28;20049;-68
2022/02/18 09:07:34;;;;;;;8.50;1.83;;;9.20;99.90;;;;;;5012527;28;20030;-68
2022/02/18 09:09:59;;;;;;;10.57;2.10;;;9.20;99.90;;;;;;5012355;28;20068;-68
2022/02/18 09:12:25;;;;;;;12.00;2.20;;;9.30;99.90;;;;;;5011841;28;20096;-68
2022/02/18 09:14:51;;;;;;;10.65;2.47;;;9.30;99.90;;;;;;5012291;28;20501;-68
2022/02/18 09:17:18;;;;;;;7.88;2.05;;;9.40;99.90;;;;;;5012666;28;20030;-68
2022/02/18 09:19:43;;;;;;;12.68;2.08;;;9.50;99.90;;;;;;5010265;28;20030;-68
2022/02/18 09:22:09;;;;;;;7.57;1.75;;;9.60;99.90;;;;;;4993238;28;20068;-68
2022/02/18 09:24:35;;;;;;;11.57;2.15;;;9.80;99.90;;;;;;4993003;28;20034;-69
2022/02/18 09:27:01;;;;;;;10.23;1.77;;;9.90;99.90;;;;;;4992139;28;20030;-68
2022/02/18 09:29:26;;;;;;;9.45;1.75;;;10.10;99.90;;;;;;5006397;28;20034;-69
2022/02/18 09:31:53;;;;;;;8.30;1.73;;;10.20;99.90;;;;;;5012739;28;20073;-69
2022/02/18 09:34:20;;;;;;;13.80;1.92;;;10.30;99.90;;;;;;5010723;28;20467;-69
2022/02/18 09:36:45;;;;;;;14.95;2.22;;;10.40;99.90;;;;;;5006557;28;20022;-69
2022/02/18 09:39:12;;;;;;;8.57;2.00;;;10.40;99.90;;;;;;5011537;28;20026;-68
2022/02/18 09:41:41;;;;;;;5.15;1.45;;;10.50;99.90;;;;;;5012588;28;20072;-68
2022/02/18 09:44:08;;;;;;;11.45;2.13;;;10.60;99.90;;;;;;5023663;28;20067;-68
2022/02/18 09:46:34;;;;;;;5.90;1.48;;;10.60;99.90;;;;;;5032362;28;20092;-69
2022/02/18 09:49:01;;;;;;;6.80;1.70;;;10.60;99.90;;;;;;5020802;28;20072;-69
2022/02/18 09:51:27;;;;;;;5.47;1.75;;;10.70;99.90;;;;;;5004917;28;20029;-68
2022/02/18 09:53:53;;;;;;;10.93;2.40;;;10.70;99.90;;;;;;5012290;28;20105;-69
2022/02/18 09:56:19;;;;;;;9.55;1.73;;;10.80;99.90;;;;;;5011865;28;20079;-69
2022/02/18 09:58:45;;;;;;;8.75;1.73;;;10.90;99.90;;;;;;5001146;28;20034;-69
2022/02/18 10:01:14;;;;;;;6.18;1.42;;;11.00;99.90;;;;;;5016309;28;20559;-69
2022/02/18 10:03:39;;;;;;;4.18;1.02;;;11.10;99.90;;;;;;5027210;28;20038;-68
2022/02/18 10:06:05;;;;;;;4.97;1.40;;;11.10;99.90;;;;;;5011686;28;20042;-68
2022/02/18 10:08:31;;;;;;;5.45;1.23;;;11.20;99.90;;;;;;5010882;28;20037;-69
2022/02/18 10:11:07;;;;;;;4.63;1.17;;;11.30;99.90;;;;;;5011269;28;20026;-69
2022/02/18 10:13:38;;;;;;;6.32;1.35;;;11.40;99.90;;;;;;5026729;28;20020;-69
2022/02/18 10:16:09;;;;;;;3.67;1.20;;;11.50;99.90;;;;;;5031690;28;20018;-68
2022/02/18 10:18:51;;;;;;;3.45;0.90;;;11.60;99.90;;;;;;5028483;28;20047;-69
2022/02/18 10:21:39;;;;;;;2.20;0.80;;;11.70;99.90;;;;;;5012143;28;20069;-68
2022/02/18 10:24:05;;;;;;;6.93;1.10;;;11.80;99.90;;;;;;5011003;28;20030;-69
2022/02/18 10:26:38;;;;;;;2.38;0.95;;;11.80;99.90;;;;;;5010174;28;20042;-69
2022/02/18 10:29:09;;;;;;;2.45;0.75;;;11.90;99.90;;;;;;5009104;28;20038;-69
2022/02/18 10:31:36;;;;;;;2.72;0.82;;;12.00;99.90;;;;;;5011800;28;20061;-68
2022/02/18 10:34:05;;;;;;;4.35;0.82;;;12.20;99.90;;;;;;5011319;28;20121;-69
2022/02/18 10:36:49;;;;;;;3.40;0.80;;;12.20;99.90;;;;;;5009881;28;20433;-69
2022/02/18 10:39:30;;;;;;;3.03;0.80;;;12.30;99.90;;;;;;5010691;28;20017;-69
2022/02/18 10:42:01;;;;;;;2.42;0.77;;;12.40;99.90;;;;;;5009009;28;20666;-69
2022/02/18 10:44:29;;;;;;;2.40;0.50;;;12.50;99.90;;;;;;5016064;28;20120;-69
2022/02/18 10:46:55;;;;;;;2.05;0.70;;;12.60;99.90;;;;;;5012365;28;20029;-69
2022/02/18 10:49:26;;;;;;;2.30;0.73;;;12.60;99.90;;;;;;5010540;28;20032;-69
2022/02/18 10:51:53;;;;;;;1.40;0.70;;;12.60;99.90;;;;;;5010394;28;20670;-69
2022/02/18 10:54:32;;;;;;;1.40;0.65;;;12.70;99.90;;;;;;5011059;28;20386;-69
2022/02/18 10:57:19;;;;;;;4.93;0.82;;;12.80;99.90;;;;;;4991279;28;20030;-69
2022/02/18 10:59:45;;;;;;;2.67;0.70;;;12.90;99.90;;;;;;5007659;28;20494;-69
2022/02/18 11:02:11;;;;;;;1.80;0.65;;;13.00;99.90;;;;;;5010974;28;20604;-69
2022/02/18 11:04:37;;;;;;;4.43;1.00;;;13.00;99.90;;;;;;5009077;28;20497;-69
2022/02/18 11:07:10;;;;;;;2.92;0.90;;;13.10;99.90;;;;;;5010368;28;20049;-68
2022/02/18 11:09:36;;;;;;;2.58;0.70;;;13.20;99.90;;;;;;5009189;28;20030;-69
2022/02/18 11:12:07;;;;;;;2.85;0.70;;;13.30;99.90;;;;;;5010934;28;20092;-69
2022/02/18 11:14:33;;;;;;;2.55;1.02;;;13.30;99.90;;;;;;5017210;28;20112;-69
2022/02/18 11:16:59;;;;;;;3.10;0.93;;;13.40;99.90;;;;;;5029958;28;20021;-69
2022/02/18 11:19:25;;;;;;;4.10;1.15;;;13.40;99.90;;;;;;5022475;28;20022;-69
2022/02/18 11:21:51;;;;;;;2.78;1.38;;;13.50;99.90;;;;;;5010118;28;20040;-69
2022/02/18 11:24:18;;;;;;;3.42;0.80;;;13.50;99.90;;;;;;5009673;28;20109;-69
2022/02/18 11:26:44;;;;;;;1.20;0.95;;;13.60;99.90;;;;;;5007528;23;20125;-67
2022/02/18 11:29:11;;;;;;;4.55;0.63;;;13.60;99.90;;;;;;4987635;28;20027;-70
2022/02/18 11:31:39;;;;;;;1.25;0.60;;;13.70;99.90;;;;;;4989470;28;20120;-68
2022/02/18 11:34:29;;;;;;;1.98;0.60;;;13.70;99.90;;;;;;4987444;28;20018;-68
2022/02/18 11:37:18;;;;;;;5.43;1.00;;;13.80;99.90;;;;;;4990640;28;20486;-69
2022/02/18 11:40:26;;;;;;;2.20;0.90;;;13.80;99.90;;;;;;4990389;28;20039;-68
2022/02/18 11:43:16;;;;;;;2.22;0.90;;;14.00;99.90;;;;;;4982005;28;20046;-68
2022/02/18 11:45:42;;;;;;;1.92;0.70;;;14.00;99.90;;;;;;4990726;28;20442;-70
2022/02/18 11:48:07;;;;;;;1.92;0.70;;;14.20;99.90;;;;;;4988290;28;20035;-68
2022/02/18 11:50:34;;;;;;;4.35;0.80;;;14.20;99.90;;;;;;4985423;28;20406;-68
2022/02/18 11:53:00;;;;;;;1.92;0.82;;;14.30;99.90;;;;;;4990367;28;20023;-68
2022/02/18 11:55:34;;;;;;;4.28;0.80;;;14.30;99.90;;;;;;4990067;28;20101;-68
2022/02/18 11:58:12;;;;;;;1.83;0.60;;;14.40;99.90;;;;;;4981030;28;20030;-69
2022/02/18 12:00:47;;;;;;;3.03;0.80;;;14.40;99.90;;;;;;4987169;28;20470;-70
2022/02/18 12:03:19;;;;;;;4.70;0.90;;;14.40;99.90;;;;;;4982297;28;20050;-72
2022/02/18 12:06:12;;;;;;;3.88;0.98;;;14.40;99.90;;;;;;4990906;28;20044;-70
2022/02/18 12:08:39;;;;;;;3.47;0.70;;;14.40;99.90;;;;;;4985067;28;21780;-69
2022/02/18 12:11:12;;;;;;;2.42;1.63;;;14.40;99.90;;;;;;4990559;28;20050;-69
2022/02/18 12:13:53;;;;;;;3.47;0.70;;;14.40;99.90;;;;;;4989827;28;20430;-69
2022/02/18 12:16:20;;;;;;;3.83;0.98;;;14.40;99.90;;;;;;4989804;28;20502;-70
2022/02/18 12:19:13;;;;;;;2.17;0.80;;;14.50;99.90;;;;;;4986738;28;20038;-71
2022/02/18 12:22:00;;;;;;;4.55;0.70;;;14.50;99.90;;;;;;4991365;28;20022;-70
2022/02/18 12:24:31;;;;;;;2.92;0.85;;;14.60;99.90;;;;;;4990383;28;20439;-70
2022/02/18 12:27:18;;;;;;;2.35;0.40;;;14.60;99.90;;;;;;4990094;28;20034;-69
2022/02/18 12:29:47;;;;;;;0.50;0.50;;;14.60;99.90;;;;;;4988222;28;20030;-71
2022/02/18 12:32:16;;;;;;;1.60;0.57;;;14.60;99.90;;;;;;4986981;28;20165;-72
2022/02/18 12:34:43;;;;;;;4.10;0.63;;;14.60;99.90;;;;;;4993241;28;20065;-70
2022/02/18 12:37:10;;;;;;;3.92;0.50;;;14.60;99.90;;;;;;4991373;28;20019;-70
2022/02/18 12:39:41;;;;;;;1.20;0.60;;;14.70;99.90;;;;;;4993578;28;20502;-70
2022/02/18 12:42:12;;;;;;;2.67;0.50;;;14.60;99.90;;;;;;4990058;28;20104;-70
2022/02/18 12:44:51;;;;;;;2.47;0.60;;;14.60;99.90;;;;;;4987144;28;20049;-69
2022/02/18 12:47:21;;;;;;;1.52;0.40;;;14.60;99.90;;;;;;4985760;28;20026;-70
2022/02/18 12:49:47;;;;;;;3.00;0.70;;;14.60;99.90;;;;;;4992303;28;20145;-70